Time;durP1;ratioP1;P1;durP2;ratioP2;P2;SDS_P1;SDS_P2;PMS_P1;PMS_P2;Temp;Humidity;BMP_temperature;BMP_pressure;BME280_temperature;BME280_humidity;BME280_pressure;Samples;Min_cycle;Max_cycle;Signal;HPM_P1;HPM_P2
2022/10/28 00:00:55;;;;;;;14.85;6.85;;;13.80;99.90;;;;;;4336344;28;10000559;-76
2022/10/28 00:03:20;;;;;;;9.50;6.35;;;13.80;99.90;;;;;;5026549;28;20026;-76
2022/10/28 00:05:46;;;;;;;10.55;6.25;;;13.70;99.90;;;;;;5021574;28;20036;-76
2022/10/28 00:08:12;;;;;;;12.55;6.20;;;13.70;99.90;;;;;;5021540;28;20041;-76
2022/10/28 00:10:38;;;;;;;12.68;6.35;;;13.70;99.90;;;;;;5026849;28;20035;-76
2022/10/28 00:13:03;;;;;;;10.13;6.15;;;13.60;99.90;;;;;;5023910;28;20048;-76
2022/10/28 00:15:29;;;;;;;9.98;5.80;;;13.60;99.90;;;;;;5022694;28;20028;-76
2022/10/28 00:17:55;;;;;;;14.60;6.60;;;13.60;99.90;;;;;;5025585;28;20523;-76
2022/10/28 00:20:21;;;;;;;17.48;7.22;;;13.50;99.90;;;;;;5021392;28;20021;-76
2022/10/28 00:22:46;;;;;;;13.88;7.20;;;13.50;99.90;;;;;;5017153;28;20025;-76
2022/10/28 00:25:12;;;;;;;14.07;7.80;;;13.50;99.90;;;;;;5021806;28;20181;-76
2022/10/28 00:27:37;;;;;;;17.98;7.65;;;13.50;99.90;;;;;;5034110;28;20721;-76
2022/10/28 00:30:04;;;;;;;13.60;6.90;;;13.50;99.90;;;;;;5039100;28;20053;-76
2022/10/28 00:32:31;;;;;;;11.63;6.63;;;13.60;99.90;;;;;;5038920;28;20100;-76
2022/10/28 00:34:57;;;;;;;16.50;6.55;;;13.60;99.90;;;;;;5035838;28;20152;-76
2022/10/28 00:37:23;;;;;;;14.95;6.72;;;13.60;99.90;;;;;;5032240;28;20024;-76
2022/10/28 00:39:49;;;;;;;11.77;5.88;;;13.50;99.90;;;;;;5035097;28;20022;-76
2022/10/28 00:42:21;;;;;;;9.25;5.70;;;13.50;99.90;;;;;;5030734;28;20038;-76
2022/10/28 00:44:59;;;;;;;15.65;6.47;;;13.60;99.90;;;;;;5018203;28;20112;-76
2022/10/28 00:47:50;;;;;;;12.38;6.45;;;13.60;99.90;;;;;;5019757;28;20099;-76
2022/10/28 00:50:47;;;;;;;10.10;5.97;;;13.70;99.90;;;;;;5019970;28;20148;-76
2022/10/28 00:53:20;;;;;;;10.32;5.88;;;13.70;99.90;;;;;;5017394;28;20046;-76
2022/10/28 00:55:47;;;;;;;12.80;6.05;;;13.70;99.90;;;;;;5030895;28;20135;-76
2022/10/28 00:58:14;;;;;;;13.02;7.00;;;13.70;99.90;;;;;;5030197;28;20036;-76
2022/10/28 01:00:40;;;;;;;12.45;6.15;;;13.80;99.90;;;;;;5027923;28;20397;-76
2022/10/28 01:03:06;;;;;;;12.55;6.30;;;13.80;99.90;;;;;;5028704;28;20041;-76
2022/10/28 01:05:35;;;;;;;17.30;7.03;;;13.80;99.90;;;;;;5030289;28;20033;-76
2022/10/28 01:08:03;;;;;;;15.98;7.28;;;13.80;99.90;;;;;;5032637;28;20484;-76
2022/10/28 01:10:58;;;;;;;10.13;6.40;;;13.90;99.90;;;;;;5023103;28;20650;-76
2022/10/28 01:13:56;;;;;;;11.73;5.90;;;14.00;99.90;;;;;;5026782;28;20113;-76
2022/10/28 01:16:31;;;;;;;10.25;5.93;;;14.00;99.90;;;;;;5019725;28;20111;-76
2022/10/28 01:18:56;;;;;;;11.73;6.35;;;14.00;99.90;;;;;;5020306;28;20071;-76
2022/10/28 01:21:41;;;;;;;16.70;6.95;;;14.00;99.90;;;;;;5018494;28;20032;-76
2022/10/28 01:24:14;;;;;;;15.05;6.75;;;14.10;99.90;;;;;;5018610;28;20084;-76
2022/10/28 01:26:55;;;;;;;13.40;6.80;;;14.00;99.90;;;;;;5020971;28;20033;-76
2022/10/28 01:29:39;;;;;;;14.35;6.40;;;14.10;99.90;;;;;;5018345;28;20041;-76
2022/10/28 01:32:16;;;;;;;14.43;7.07;;;14.00;99.90;;;;;;5015079;28;20068;-76
2022/10/28 01:34:57;;;;;;;16.17;6.70;;;14.00;99.90;;;;;;5021889;28;20477;-76
2022/10/28 01:37:39;;;;;;;17.65;6.78;;;14.00;99.90;;;;;;5023425;28;20561;-76
2022/10/28 01:40:17;;;;;;;15.55;6.70;;;14.10;99.90;;;;;;5024535;28;20048;-76
2022/10/28 01:43:05;;;;;;;16.38;6.63;;;14.00;99.90;;;;;;5021992;28;20026;-76
2022/10/28 01:45:41;;;;;;;18.67;6.70;;;14.00;99.90;;;;;;5021776;28;20040;-76
2022/10/28 01:48:34;;;;;;;18.52;6.50;;;14.00;99.90;;;;;;5017370;28;20516;-76
2022/10/28 01:51:07;;;;;;;12.75;5.95;;;14.10;99.90;;;;;;5020661;28;20052;-76
2022/10/28 01:53:35;;;;;;;14.30;5.37;;;14.20;99.90;;;;;;5023142;28;20440;-76
2022/10/28 01:56:07;;;;;;;11.32;5.57;;;14.20;99.90;;;;;;5024570;28;20086;-76
2022/10/28 01:58:35;;;;;;;14.13;6.18;;;14.20;99.90;;;;;;5016989;28;20025;-76
2022/10/28 02:01:05;;;;;;;11.93;5.75;;;14.30;99.90;;;;;;5021403;28;20032;-76
2022/10/28 02:03:30;;;;;;;11.15;5.45;;;14.30;99.90;;;;;;5016471;28;20037;-76
2022/10/28 02:05:59;;;;;;;12.48;5.93;;;14.40;99.90;;;;;;5022486;28;20017;-76
2022/10/28 02:08:37;;;;;;;17.13;6.03;;;14.40;99.90;;;;;;5024967;28;20040;-76
2022/10/28 02:11:26;;;;;;;15.25;5.53;;;14.30;99.90;;;;;;5022573;28;20036;-76
2022/10/28 02:14:20;;;;;;;10.40;5.93;;;14.40;99.90;;;;;;5018632;28;20029;-76
2022/10/28 02:17:00;;;;;;;16.02;5.97;;;14.30;99.90;;;;;;5020296;28;20079;-76
2022/10/28 02:19:47;;;;;;;12.55;5.53;;;14.30;99.90;;;;;;5020015;28;20488;-76
2022/10/28 02:22:12;;;;;;;14.75;6.05;;;14.30;99.90;;;;;;5022015;28;20060;-76
2022/10/28 02:25:01;;;;;;;14.98;5.85;;;14.20;99.90;;;;;;5021437;28;20489;-76
2022/10/28 02:27:30;;;;;;;12.65;5.90;;;14.20;99.90;;;;;;5022503;28;20543;-76
2022/10/28 02:30:07;;;;;;;14.57;5.60;;;14.20;99.90;;;;;;5019646;28;20045;-76
2022/10/28 02:32:43;;;;;;;18.08;5.93;;;14.20;99.90;;;;;;5011521;28;20120;-76
2022/10/28 02:35:21;;;;;;;14.80;6.43;;;14.20;99.90;;;;;;5022737;28;20032;-76
2022/10/28 02:37:49;;;;;;;17.33;6.18;;;14.20;99.90;;;;;;5020161;28;20017;-76
2022/10/28 02:40:21;;;;;;;15.40;5.93;;;14.20;99.90;;;;;;5026119;28;20513;-76
2022/10/28 02:42:51;;;;;;;18.60;6.47;;;14.30;99.90;;;;;;5025305;28;20040;-76
2022/10/28 02:45:21;;;;;;;14.23;6.20;;;14.30;99.90;;;;;;5017981;28;20029;-76
2022/10/28 02:47:55;;;;;;;15.82;6.53;;;14.30;99.90;;;;;;5025831;28;20071;-76
2022/10/28 02:50:29;;;;;;;13.13;6.22;;;14.30;99.90;;;;;;5026382;28;20045;-76
2022/10/28 02:52:57;;;;;;;16.58;6.53;;;14.40;99.90;;;;;;5022130;28;20205;-76
2022/10/28 02:55:27;;;;;;;11.77;5.72;;;14.40;99.90;;;;;;5029417;28;20952;-76
2022/10/28 02:57:53;;;;;;;16.10;6.13;;;14.40;99.90;;;;;;5030262;28;20481;-76
2022/10/28 03:00:24;;;;;;;20.15;6.50;;;14.50;99.90;;;;;;5029446;28;20028;-77
2022/10/28 03:02:50;;;;;;;18.33;6.40;;;14.60;99.90;;;;;;5020513;28;20547;-77
2022/10/28 03:05:16;;;;;;;11.40;6.38;;;14.60;99.90;;;;;;5025969;28;20037;-77
2022/10/28 03:07:42;;;;;;;13.50;6.30;;;14.70;99.90;;;;;;5029508;28;20013;-77
2022/10/28 03:10:08;;;;;;;15.07;6.25;;;14.60;99.90;;;;;;5025748;28;20133;-77
2022/10/28 03:12:34;;;;;;;18.73;6.15;;;14.50;99.90;;;;;;5024145;28;20047;-77
2022/10/28 03:15:01;;;;;;;16.48;6.75;;;14.50;99.90;;;;;;5022205;28;20030;-77
2022/10/28 03:17:27;;;;;;;13.32;6.80;;;14.50;99.90;;;;;;5026139;28;20033;-77
2022/10/28 03:19:53;;;;;;;11.30;5.75;;;14.40;99.90;;;;;;5029986;28;20029;-77
2022/10/28 03:22:18;;;;;;;21.25;6.15;;;14.40;99.90;;;;;;5022541;28;20017;-77
2022/10/28 03:24:44;;;;;;;11.75;5.90;;;14.40;99.90;;;;;;5023718;28;20029;-77
2022/10/28 03:27:09;;;;;;;16.63;6.47;;;14.40;99.90;;;;;;5026414;28;20025;-77
2022/10/28 03:29:35;;;;;;;15.25;6.72;;;14.40;99.90;;;;;;5023644;28;21128;-77
2022/10/28 03:32:01;;;;;;;17.30;6.65;;;14.40;99.90;;;;;;5023773;28;20116;-77
2022/10/28 03:34:26;;;;;;;17.73;6.97;;;14.40;99.90;;;;;;5023695;28;20025;-77
2022/10/28 03:36:52;;;;;;;12.75;5.78;;;14.40;99.90;;;;;;5023860;28;20117;-77
2022/10/28 03:39:17;;;;;;;12.88;5.55;;;14.40;99.90;;;;;;5025808;28;20028;-77
2022/10/28 03:41:43;;;;;;;13.48;6.18;;;14.40;99.90;;;;;;5025401;28;20745;-77
2022/10/28 03:44:09;;;;;;;11.30;5.50;;;14.40;99.90;;;;;;5026219;28;20362;-77
2022/10/28 03:46:34;;;;;;;14.02;5.93;;;14.30;99.90;;;;;;5023331;28;20025;-77
2022/10/28 03:49:00;;;;;;;11.23;5.50;;;14.30;99.90;;;;;;5022053;28;20025;-77
2022/10/28 03:51:25;;;;;;;15.10;5.90;;;14.30;99.90;;;;;;5025797;28;20473;-77
2022/10/28 03:53:51;;;;;;;11.25;5.57;;;14.30;99.90;;;;;;5034433;28;20033;-77
2022/10/28 03:56:17;;;;;;;14.35;5.80;;;14.30;99.90;;;;;;5028182;28;20029;-77
2022/10/28 03:58:42;;;;;;;12.45;5.75;;;14.30;99.90;;;;;;5022677;28;20401;-77
2022/10/28 04:01:08;;;;;;;13.18;6.05;;;14.30;99.90;;;;;;5037850;28;20021;-77
2022/10/28 04:03:33;;;;;;;12.40;5.75;;;14.30;99.90;;;;;;5022257;28;20037;-77
2022/10/28 04:05:59;;;;;;;13.65;6.22;;;14.40;99.90;;;;;;5026212;28;20025;-78
2022/10/28 04:08:24;;;;;;;20.23;6.82;;;14.40;99.90;;;;;;5023271;28;20040;-77
2022/10/28 04:10:50;;;;;;;16.75;6.25;;;14.40;99.90;;;;;;5026778;28;20032;-77
2022/10/28 04:13:16;;;;;;;16.27;5.95;;;14.40;99.90;;;;;;5025281;28;20110;-78
2022/10/28 04:15:42;;;;;;;11.30;5.53;;;14.40;99.90;;;;;;5015471;28;20025;-77
2022/10/28 04:18:08;;;;;;;19.48;6.32;;;14.40;99.90;;;;;;5025401;28;20018;-77
2022/10/28 04:20:33;;;;;;;18.20;6.70;;;14.40;99.90;;;;;;5026609;28;20082;-77
2022/10/28 04:22:59;;;;;;;16.02;6.50;;;14.40;99.90;;;;;;5028166;28;20024;-77
2022/10/28 04:25:26;;;;;;;12.93;6.35;;;14.40;99.90;;;;;;5024063;28;20029;-77
2022/10/28 04:27:51;;;;;;;14.95;6.68;;;14.40;99.90;;;;;;5036895;28;20418;-77
2022/10/28 04:30:17;;;;;;;13.20;6.47;;;14.40;99.90;;;;;;5037372;28;20180;-77
2022/10/28 04:32:43;;;;;;;14.77;6.32;;;14.40;99.90;;;;;;5026418;28;20053;-77
2022/10/28 04:35:11;;;;;;;13.55;6.43;;;14.40;99.90;;;;;;5033161;28;20021;-77
2022/10/28 04:37:36;;;;;;;12.20;5.90;;;14.40;99.90;;;;;;5028778;28;20081;-77
2022/10/28 04:40:03;;;;;;;17.02;6.22;;;14.40;99.90;;;;;;5028159;28;20029;-77
2022/10/28 04:42:29;;;;;;;16.13;6.57;;;14.40;99.90;;;;;;5021442;28;20036;-77
2022/10/28 04:44:54;;;;;;;14.00;6.28;;;14.40;99.90;;;;;;5021999;28;20025;-77
2022/10/28 04:47:20;;;;;;;12.52;6.63;;;14.40;99.90;;;;;;5019440;28;20197;-77
2022/10/28 04:49:46;;;;;;;13.90;6.50;;;14.40;99.90;;;;;;5026151;28;20044;-77
2022/10/28 04:52:11;;;;;;;13.23;6.13;;;14.40;99.90;;;;;;5023203;28;22099;-77
2022/10/28 04:54:37;;;;;;;13.93;6.60;;;14.40;99.90;;;;;;5018248;28;20063;-77
2022/10/28 04:57:03;;;;;;;13.40;6.30;;;14.40;99.90;;;;;;5024358;28;20489;-77
2022/10/28 04:59:29;;;;;;;12.52;6.22;;;14.30;99.90;;;;;;5029668;28;20105;-77
2022/10/28 05:01:54;;;;;;;15.38;6.05;;;14.40;99.90;;;;;;5027499;28;20402;-77
2022/10/28 05:04:20;;;;;;;12.57;5.93;;;14.30;99.90;;;;;;5028122;28;20041;-77
2022/10/28 05:06:46;;;;;;;13.68;5.90;;;14.30;99.90;;;;;;5021574;28;20379;-77
2022/10/28 05:09:12;;;;;;;9.35;5.75;;;14.30;99.90;;;;;;5026687;28;20034;-77
2022/10/28 05:11:37;;;;;;;11.48;5.00;;;14.30;99.90;;;;;;5027051;28;20033;-77
2022/10/28 05:14:03;;;;;;;7.40;4.35;;;14.20;99.90;;;;;;5018918;28;20037;-77
2022/10/28 05:16:29;;;;;;;8.55;5.22;;;14.20;99.90;;;;;;5026481;28;20056;-77
2022/10/28 05:18:55;;;;;;;8.02;5.03;;;14.20;99.90;;;;;;5019550;28;20021;-77
2022/10/28 05:21:20;;;;;;;10.90;5.70;;;14.20;99.90;;;;;;5031270;28;20626;-77
2022/10/28 05:23:46;;;;;;;10.15;5.20;;;14.10;99.90;;;;;;5028597;28;20037;-77
2022/10/28 05:26:12;;;;;;;7.40;4.97;;;14.10;99.90;;;;;;5017950;28;20025;-77
2022/10/28 05:28:38;;;;;;;7.70;5.35;;;14.10;99.90;;;;;;5025019;28;20131;-77
2022/10/28 05:31:03;;;;;;;8.60;4.63;;;14.00;99.90;;;;;;5027288;28;20084;-77
2022/10/28 05:33:29;;;;;;;10.10;5.10;;;14.00;99.90;;;;;;5013891;28;20040;-77
2022/10/28 05:35:57;;;;;;;8.45;5.65;;;14.00;99.90;;;;;;5034192;28;20035;-76
2022/10/28 05:38:22;;;;;;;9.35;5.80;;;13.90;99.90;;;;;;5031618;28;20056;-77
2022/10/28 05:40:48;;;;;;;8.15;5.38;;;13.90;99.90;;;;;;5024149;28;20030;-77
2022/10/28 05:43:13;;;;;;;8.07;5.22;;;13.80;99.90;;;;;;5023292;28;20479;-77
2022/10/28 05:45:39;;;;;;;7.18;5.57;;;13.80;99.90;;;;;;5033291;28;20112;-77
2022/10/28 05:48:05;;;;;;;12.02;6.82;;;13.70;99.90;;;;;;5029263;28;20029;-77
2022/10/28 05:50:31;;;;;;;11.30;6.32;;;13.70;99.90;;;;;;5027172;28;20040;-76
2022/10/28 05:52:56;;;;;;;17.10;8.40;;;13.70;99.90;;;;;;5029961;28;20283;-76
2022/10/28 05:55:24;;;;;;;17.83;7.93;;;13.60;99.90;;;;;;5028339;28;20037;-77
2022/10/28 05:57:51;;;;;;;12.00;7.70;;;13.60;99.90;;;;;;5028682;28;20880;-77
2022/10/28 06:00:19;;;;;;;11.80;6.28;;;13.50;99.90;;;;;;5023568;28;20034;-77
2022/10/28 06:02:45;;;;;;;9.95;6.35;;;;;;;;;;5026076;28;20043;-77
2022/10/28 06:05:11;;;;;;;12.00;6.00;;;13.50;99.90;;;;;;5027266;28;20359;-76
2022/10/28 06:07:38;;;;;;;12.85;6.80;;;13.50;99.90;;;;;;5033790;28;20021;-77
2022/10/28 06:10:05;;;;;;;17.98;7.45;;;13.50;99.90;;;;;;5036414;28;20432;-77
2022/10/28 06:12:31;;;;;;;19.55;6.85;;;13.60;99.90;;;;;;5030065;28;20046;-77
2022/10/28 06:14:57;;;;;;;15.30;6.53;;;13.60;99.90;;;;;;5032052;28;20021;-77
2022/10/28 06:17:23;;;;;;;16.63;7.18;;;13.60;99.90;;;;;;5028379;28;20033;-77
2022/10/28 06:19:48;;;;;;;19.80;6.50;;;13.70;99.90;;;;;;5030502;28;20021;-77
2022/10/28 06:22:14;;;;;;;15.10;7.43;;;13.70;99.90;;;;;;5031014;28;20036;-77
2022/10/28 06:24:40;;;;;;;17.25;6.32;;;13.80;99.90;;;;;;5028716;28;20029;-77
2022/10/28 06:27:06;;;;;;;16.25;6.43;;;13.90;99.90;;;;;;5036487;28;20029;-77
2022/10/28 06:29:33;;;;;;;14.60;5.90;;;14.00;99.90;;;;;;5029530;28;20057;-77
2022/10/28 06:31:59;;;;;;;13.77;6.15;;;14.00;99.90;;;;;;5027111;28;20037;-77
2022/10/28 06:34:24;;;;;;;11.68;5.88;;;14.00;99.90;;;;;;5040144;28;20540;-77
2022/10/28 06:36:50;;;;;;;12.43;5.40;;;14.00;99.90;;;;;;5044863;28;20122;-77
2022/10/28 06:39:16;;;;;;;10.63;5.00;;;13.90;99.90;;;;;;5037183;28;20123;-77
2022/10/28 06:41:42;;;;;;;14.40;6.05;;;13.90;99.90;;;;;;5032133;28;20492;-77
2022/10/28 06:44:08;;;;;;;12.65;5.13;;;13.90;99.90;;;;;;5027098;28;20032;-77
2022/10/28 06:46:33;;;;;;;14.73;5.43;;;13.90;99.90;;;;;;5042472;28;20082;-77
2022/10/28 06:49:02;;;;;;;13.88;5.10;;;13.90;99.90;;;;;;5034283;28;20059;-77
2022/10/28 06:51:28;;;;;;;15.20;5.20;;;13.80;99.90;;;;;;5027650;28;20174;-77
2022/10/28 06:53:54;;;;;;;15.70;5.53;;;13.80;99.90;;;;;;5029783;28;20029;-77
2022/10/28 06:56:20;;;;;;;8.90;5.03;;;13.80;99.90;;;;;;5032071;28;20029;-77
2022/10/28 06:58:53;;;;;;;11.55;4.90;;;13.70;99.90;;;;;;5032002;28;20022;-77
2022/10/28 07:01:18;;;;;;;9.13;5.18;;;13.70;99.90;;;;;;5033424;28;20032;-77
2022/10/28 07:03:45;;;;;;;11.90;5.32;;;13.70;99.90;;;;;;5041702;28;20040;-76
2022/10/28 07:06:11;;;;;;;7.40;4.55;;;13.60;99.90;;;;;;5028697;28;20080;-77
2022/10/28 07:08:37;;;;;;;9.25;4.55;;;13.60;99.90;;;;;;5036041;28;20516;-76
2022/10/28 07:11:02;;;;;;;10.25;4.55;;;13.60;99.90;;;;;;5030745;28;20040;-76
2022/10/28 07:13:28;;;;;;;9.70;4.53;;;13.60;99.90;;;;;;5038732;28;20120;-76
2022/10/28 07:15:57;;;;;;;10.75;4.78;;;13.60;99.90;;;;;;5040293;28;20618;-76
2022/10/28 07:18:24;;;;;;;8.98;4.60;;;13.60;99.90;;;;;;5034387;28;20029;-76
2022/10/28 07:20:50;;;;;;;8.10;4.38;;;13.60;99.90;;;;;;5022382;28;20040;-76
2022/10/28 07:23:16;;;;;;;9.52;4.32;;;13.60;99.90;;;;;;5036403;28;20029;-77
2022/10/28 07:25:42;;;;;;;7.13;4.20;;;13.60;99.90;;;;;;5025539;28;20057;-77
2022/10/28 07:28:08;;;;;;;8.45;5.00;;;;;;;;;;5036167;28;20091;-78
2022/10/28 07:30:35;;;;;;;8.68;5.90;;;;;;;;;;5037007;28;20069;-78
2022/10/28 07:33:02;;;;;;;11.68;6.03;;;;;;;;;;5026336;28;21357;-78
2022/10/28 07:35:29;;;;;;;12.60;6.03;;;;;;;;;;5031289;28;20025;-77
2022/10/28 07:37:55;;;;;;;8.98;5.22;;;14.20;99.90;;;;;;5037810;28;20649;-78
2022/10/28 07:40:21;;;;;;;12.38;5.20;;;;;;;;;;5030544;28;20134;-77
2022/10/28 07:42:47;;;;;;;7.78;4.88;;;;;;;;;;5027306;28;20051;-77
2022/10/28 07:45:13;;;;;;;11.55;5.00;;;;;;;;;;5023392;28;20026;-76
2022/10/28 07:47:39;;;;;;;8.18;4.93;;;;;;;;;;5027539;28;20064;-77
2022/10/28 07:50:05;;;;;;;8.68;5.15;;;;;;;;;;5029991;28;20483;-77
2022/10/28 07:52:32;;;;;;;15.77;6.10;;;;;;;;;;5026837;28;20029;-77
2022/10/28 07:54:58;;;;;;;11.88;6.28;;;;;;;;;;5044971;28;20132;-77
2022/10/28 07:57:24;;;;;;;9.73;6.35;;;;;;;;;;5042918;28;20809;-77
2022/10/28 07:59:50;;;;;;;12.48;6.50;;;;;;;;;;5029024;28;20752;-76
2022/10/28 08:02:17;;;;;;;13.30;7.20;;;;;;;;;;5036994;28;20219;-77
2022/10/28 08:04:44;;;;;;;15.55;7.20;;;;;;;;;;5027603;28;20072;-77
2022/10/28 08:07:10;;;;;;;10.63;6.07;;;14.70;99.90;;;;;;5034472;28;20415;-76
2022/10/28 08:09:36;;;;;;;15.07;6.43;;;;;;;;;;5037223;28;20547;-77
2022/10/28 08:12:01;;;;;;;12.68;5.65;;;15.40;99.90;;;;;;5037744;28;20033;-76
2022/10/28 08:14:28;;;;;;;12.55;5.90;;;15.40;99.90;;;;;;5044737;28;20056;-76
2022/10/28 08:16:53;;;;;;;14.27;5.88;;;15.50;99.90;;;;;;5031970;28;20022;-76
2022/10/28 08:19:19;;;;;;;14.73;5.63;;;15.60;99.90;;;;;;5027195;28;20060;-76
2022/10/28 08:21:46;;;;;;;15.63;5.80;;;;;;;;;;5038960;28;20440;-77
2022/10/28 08:24:12;;;;;;;18.38;6.22;;;;;;;;;;5029194;28;20112;-76
2022/10/28 08:26:38;;;;;;;12.40;5.50;;;;;;;;;;5035480;28;20025;-76
2022/10/28 08:29:04;;;;;;;16.63;5.13;;;;;;;;;;5043847;28;20029;-76
2022/10/28 08:31:32;;;;;;;14.98;5.13;;;;;;;;;;5038007;28;20038;-76
2022/10/28 08:33:58;;;;;;;14.15;4.93;;;;;;;;;;5042874;28;20290;-77
2022/10/28 08:36:24;;;;;;;14.27;5.43;;;;;;;;;;5028003;28;20120;-76
2022/10/28 08:38:50;;;;;;;16.23;5.15;;;;;;;;;;5036649;28;20033;-76
2022/10/28 08:41:35;;;;;;;10.07;5.55;;;;;;;;;;5029159;28;20048;-76
2022/10/28 08:44:04;;;;;;;22.35;5.80;;;;;;;;;;5028152;28;20033;-77
2022/10/28 08:46:48;;;;;;;13.13;4.60;;;;;;;;;;5027294;28;20125;-76
2022/10/28 08:49:15;;;;;;;15.95;4.85;;;;;;;;;;5037238;28;20275;-77
2022/10/28 08:51:41;;;;;;;13.23;4.55;;;;;;;;;;5025132;28;20594;-76
2022/10/28 08:54:26;;;;;;;11.50;4.80;;;;;;;;;;5029233;28;20030;-76
2022/10/28 08:56:54;;;;;;;11.30;4.60;;;;;;;;;;5028284;28;20515;-76
2022/10/28 08:59:34;;;;;;;14.02;4.65;;;17.30;99.90;;;;;;5024530;28;20032;-76
2022/10/28 09:02:21;;;;;;;15.95;4.90;;;17.40;99.90;;;;;;5022863;28;20628;-77
2022/10/28 09:05:10;;;;;;;16.65;4.95;;;17.40;99.90;;;;;;5024091;28;20489;-77
2022/10/28 09:07:36;;;;;;;18.73;4.95;;;17.40;99.90;;;;;;5028581;28;21208;-77
2022/10/28 09:10:03;;;;;;;20.42;4.88;;;17.50;99.90;;;;;;5033048;28;20026;-77
2022/10/28 09:12:47;;;;;;;11.90;4.50;;;17.60;99.90;;;;;;5034506;28;20520;-77
2022/10/28 09:15:19;;;;;;;17.77;4.90;;;;;;;;;;5028394;28;20114;-78
2022/10/28 09:18:00;;;;;;;9.82;4.38;;;17.70;99.90;;;;;;5028548;28;20112;-77
2022/10/28 09:20:34;;;;;;;17.25;6.43;;;17.80;99.90;;;;;;5025440;28;20076;-78
2022/10/28 09:23:21;;;;;;;20.35;7.15;;;17.80;99.90;;;;;;5029658;28;20129;-78
2022/10/28 09:25:52;;;;;;;13.55;4.68;;;17.90;99.90;;;;;;5026956;28;20029;-78
2022/10/28 09:28:23;;;;;;;14.98;4.32;;;;;;;;;;5027759;28;20032;-78
2022/10/28 09:31:00;;;;;;;16.38;4.20;;;;;;;;;;5033290;28;20067;-78
2022/10/28 09:33:41;;;;;;;15.20;3.90;;;18.30;99.90;;;;;;5030067;28;20112;-78
2022/10/28 09:36:14;;;;;;;9.63;3.50;;;18.30;99.90;;;;;;5032008;28;20024;-78
2022/10/28 09:38:41;;;;;;;20.25;4.07;;;18.40;99.90;;;;;;5036493;28;20048;-78
2022/10/28 09:41:18;;;;;;;11.30;3.60;;;18.50;99.90;;;;;;5039791;28;20029;-78
2022/10/28 09:44:04;;;;;;;9.88;3.85;;;18.60;99.90;;;;;;5032774;28;20297;-78
2022/10/28 09:46:31;;;;;;;12.80;3.50;;;18.80;99.90;;;;;;5027989;28;20038;-78
2022/10/28 09:49:02;;;;;;;16.08;3.97;;;18.80;99.90;;;;;;5027355;28;20033;-78
2022/10/28 09:51:43;;;;;;;13.65;3.58;;;18.80;99.90;;;;;;5032090;28;20155;-78
2022/10/28 09:54:10;;;;;;;9.48;3.50;;;18.90;99.90;;;;;;5029078;28;20491;-78
2022/10/28 09:56:36;;;;;;;15.52;3.55;;;19.00;99.90;;;;;;5032417;28;20044;-78
2022/10/28 09:59:03;;;;;;;20.77;3.85;;;19.10;99.90;;;;;;5027472;28;20021;-78
2022/10/28 10:01:33;;;;;;;22.10;3.95;;;19.20;99.90;;;;;;5031493;28;20026;-79
2022/10/28 10:03:59;;;;;;;16.63;3.70;;;19.30;99.90;;;;;;5027616;28;20037;-78
2022/10/28 10:06:41;;;;;;;9.23;3.28;;;19.30;99.90;;;;;;5024679;28;20030;-78
2022/10/28 10:09:16;;;;;;;14.38;3.65;;;19.40;99.90;;;;;;5033072;28;20028;-78
2022/10/28 10:11:45;;;;;;;7.45;3.40;;;19.50;99.90;;;;;;5027777;28;20116;-78
2022/10/28 10:14:17;;;;;;;16.08;3.47;;;19.40;99.90;;;;;;5025918;28;20432;-78
2022/10/28 10:16:52;;;;;;;12.90;3.80;;;19.40;99.90;;;;;;5026882;28;20027;-78
2022/10/28 10:19:17;;;;;;;15.38;4.30;;;19.40;99.90;;;;;;5030511;28;20109;-78
2022/10/28 10:21:53;;;;;;;13.63;4.05;;;19.40;99.90;;;;;;5032549;28;20111;-78
2022/10/28 10:24:21;;;;;;;14.23;4.47;;;19.30;99.90;;;;;;5022492;28;20017;-78
2022/10/28 10:26:47;;;;;;;13.82;4.07;;;19.20;99.90;;;;;;5031299;28;20025;-79
2022/10/28 10:29:12;;;;;;;13.25;3.53;;;19.20;99.90;;;;;;5026413;28;20033;-78
2022/10/28 10:31:38;;;;;;;17.40;5.30;;;19.10;99.90;;;;;;5029654;28;20112;-78
2022/10/28 10:34:06;;;;;;;18.25;5.20;;;19.10;99.90;;;;;;5025254;28;20030;-78
2022/10/28 10:36:33;;;;;;;13.32;3.75;;;19.10;99.90;;;;;;5024679;28;20052;-78
2022/10/28 10:39:00;;;;;;;14.27;4.18;;;19.10;99.90;;;;;;5032941;28;20108;-78
2022/10/28 10:41:37;;;;;;;12.38;3.60;;;19.20;99.90;;;;;;5033872;28;20021;-78
2022/10/28 10:44:28;;;;;;;10.57;3.42;;;19.20;99.90;;;;;;5033680;28;20441;-78
2022/10/28 10:47:01;;;;;;;14.05;3.33;;;19.20;99.90;;;;;;5033521;28;20032;-78
2022/10/28 10:49:27;;;;;;;10.55;3.13;;;19.30;99.90;;;;;;5029900;28;20037;-78
2022/10/28 10:51:56;;;;;;;14.60;3.72;;;19.40;99.90;;;;;;5029758;28;20134;-78
2022/10/28 10:54:23;;;;;;;13.07;3.17;;;19.40;99.90;;;;;;5019830;28;20029;-78
2022/10/28 10:56:49;;;;;;;7.85;3.10;;;19.50;99.90;;;;;;5025970;28;20693;-78
2022/10/28 10:59:28;;;;;;;12.25;2.72;;;19.60;99.90;;;;;;5023331;28;20036;-78
2022/10/28 11:01:56;;;;;;;10.95;3.05;;;19.70;99.90;;;;;;5029312;28;20032;-78
2022/10/28 11:04:25;;;;;;;14.65;3.00;;;19.90;99.90;;;;;;5030053;28;20104;-78
2022/10/28 11:06:55;;;;;;;16.55;2.95;;;20.00;99.90;;;;;;5036141;28;20040;-78
2022/10/28 11:09:41;;;;;;;13.98;2.95;;;20.00;99.90;;;;;;5031672;28;20021;-78
2022/10/28 11:12:37;;;;;;;8.43;2.92;;;20.20;99.90;;;;;;5027249;28;20075;-78
2022/10/28 11:15:21;;;;;;;9.48;2.60;;;20.40;99.90;;;;;;5029190;28;20021;-78
2022/10/28 11:17:57;;;;;;;;;;;20.60;99.90;;;;;;5034756;28;20127;-78
2022/10/28 11:20:33;;;;;;;12.35;2.80;;;20.70;99.90;;;;;;5034969;28;19909;-78
2022/10/28 11:23:24;;;;;;;15.23;2.90;;;20.80;99.90;;;;;;5031860;28;20400;-78
2022/10/28 11:25:55;;;;;;;16.35;2.92;;;20.90;99.90;;;;;;5023205;28;20037;-79
2022/10/28 11:28:39;;;;;;;14.98;2.70;;;21.10;99.90;;;;;;5033647;28;20638;-78
2022/10/28 11:31:17;;;;;;;14.73;2.67;;;21.20;99.90;;;;;;5029023;28;20144;-78
2022/10/28 11:33:56;;;;;;;15.32;3.00;;;21.20;99.90;;;;;;5023548;28;20035;-78
2022/10/28 11:36:34;;;;;;;15.95;2.72;;;21.30;99.90;;;;;;5033319;28;20033;-78
2022/10/28 11:39:18;;;;;;;10.95;2.60;;;21.30;99.90;;;;;;5029377;28;20026;-78
2022/10/28 11:41:50;;;;;;;8.30;2.38;;;21.30;99.90;;;;;;5028468;28;20486;-78
2022/10/28 11:44:24;;;;;;;9.15;2.85;;;21.30;99.90;;;;;;5026225;28;20079;-79
2022/10/28 11:47:07;;;;;;;15.32;2.90;;;21.30;99.90;;;;;;5025952;28;20241;-78
2022/10/28 11:49:58;;;;;;;18.73;3.38;;;21.30;99.90;;;;;;5044661;28;20481;-78
2022/10/28 11:52:32;;;;;;;17.17;2.75;;;21.20;99.90;;;;;;5031470;28;20456;-78
2022/10/28 11:55:11;;;;;;;13.75;3.42;;;21.00;99.90;;;;;;5035337;28;20039;-78
2022/10/28 11:57:48;;;;;;;16.73;3.38;;;20.80;99.90;;;;;;5031210;28;20622;-78
2022/10/28 12:00:36;;;;;;;19.63;3.15;;;20.80;99.90;;;;;;5026148;28;20069;-78
2022/10/28 12:03:32;;;;;;;14.05;3.35;;;20.80;99.90;;;;;;5027522;28;20249;-78
2022/10/28 12:06:13;;;;;;;11.45;2.97;;;20.90;99.90;;;;;;5029120;28;20036;-78
2022/10/28 12:08:48;;;;;;;11.30;2.50;;;20.90;99.90;;;;;;5027105;28;20041;-78
2022/10/28 12:11:29;;;;;;;13.18;3.60;;;21.00;99.90;;;;;;5032988;28;20436;-78
2022/10/28 12:14:11;;;;;;;12.82;2.90;;;21.10;99.90;;;;;;5030038;28;20036;-78
2022/10/28 12:16:37;;;;;;;11.18;2.80;;;;;;;;;;5030417;28;20040;-78
2022/10/28 12:19:21;;;;;;;11.43;3.00;;;21.10;99.90;;;;;;5027666;28;20132;-78
2022/10/28 12:22:05;;;;;;;14.65;2.70;;;;;;;;;;5025454;28;20037;-78
2022/10/28 12:24:35;;;;;;;14.35;3.00;;;20.80;99.90;;;;;;5017250;28;20470;-78
2022/10/28 12:27:09;;;;;;;13.48;2.97;;;20.80;99.90;;;;;;5028811;28;20029;-78
2022/10/28 12:29:41;;;;;;;15.68;3.17;;;20.60;99.90;;;;;;5026357;28;20050;-78
2022/10/28 12:32:13;;;;;;;11.65;3.00;;;20.50;99.90;;;;;;5036185;28;20033;-78
2022/10/28 12:35:07;;;;;;;11.52;2.70;;;20.70;99.90;;;;;;5026670;28;20029;-78
2022/10/28 12:37:40;;;;;;;15.70;2.78;;;20.80;99.90;;;;;;5035848;28;20064;-78
2022/10/28 12:40:20;;;;;;;13.88;3.13;;;21.10;99.90;;;;;;5036300;28;20060;-78
2022/10/28 12:43:11;;;;;;;12.25;2.85;;;21.20;99.90;;;;;;5025961;28;20037;-78
2022/10/28 12:45:40;;;;;;;14.75;3.10;;;21.30;99.90;;;;;;5027020;28;20056;-78
2022/10/28 12:48:21;;;;;;;16.38;3.10;;;21.50;99.90;;;;;;5032002;28;20041;-78
2022/10/28 12:50:52;;;;;;;13.57;3.35;;;21.50;99.90;;;;;;5038436;28;20044;-78
2022/10/28 12:53:24;;;;;;;19.98;2.90;;;21.40;99.90;;;;;;5026032;28;20057;-78
2022/10/28 12:55:58;;;;;;;11.80;3.17;;;21.30;99.90;;;;;;5029601;28;20025;-78
2022/10/28 12:58:31;;;;;;;11.73;2.88;;;21.20;99.90;;;;;;5029729;28;20033;-78
2022/10/28 13:01:08;;;;;;;12.88;2.85;;;21.20;99.90;;;;;;5034480;28;20404;-78
2022/10/28 13:03:34;;;;;;;18.52;2.88;;;21.10;99.90;;;;;;5022562;28;20029;-78
2022/10/28 13:06:21;;;;;;;11.43;2.63;;;21.10;99.90;;;;;;5031243;28;20071;-78
2022/10/28 13:09:04;;;;;;;14.52;3.10;;;21.10;99.90;;;;;;5031313;28;20416;-78